sensor_id;sensor_type;location;lat;lon;timestamp;P1;durP1;ratioP1;P2;durP2;ratioP2
47760;SDS011;33524;55.434;38.520;2023-05-18T00:02:26;23.67;;;14.15;;
47760;SDS011;33524;55.434;38.520;2023-05-18T00:04:55;18.92;;;13.27;;
47760;SDS011;33524;55.434;38.520;2023-05-18T00:07:23;17.90;;;13.25;;
47760;SDS011;33524;55.434;38.520;2023-05-18T00:09:51;18.83;;;13.45;;
47760;SDS011;33524;55.434;38.520;2023-05-18T00:12:19;16.12;;;13.00;;
47760;SDS011;33524;55.434;38.520;2023-05-18T00:14:47;8.38;;;6.85;;
47760;SDS011;33524;55.434;38.520;2023-05-18T00:17:15;17.87;;;11.55;;
47760;SDS011;33524;55.434;38.520;2023-05-18T00:19:44;21.80;;;12.55;;
47760;SDS011;33524;55.434;38.520;2023-05-18T00:22:13;19.20;;;11.98;;
47760;SDS011;33524;55.434;38.520;2023-05-18T00:24:50;23.35;;;14.80;;
47760;SDS011;33524;55.434;38.520;2023-05-18T00:27:19;23.50;;;14.00;;
47760;SDS011;33524;55.434;38.520;2023-05-18T00:29:47;22.90;;;13.35;;
47760;SDS011;33524;55.434;38.520;2023-05-18T00:32:15;17.25;;;12.18;;
47760;SDS011;33524;55.434;38.520;2023-05-18T00:34:43;22.27;;;13.95;;
47760;SDS011;33524;55.434;38.520;2023-05-18T00:37:11;22.73;;;13.80;;
47760;SDS011;33524;55.434;38.520;2023-05-18T00:39:39;22.58;;;14.77;;
47760;SDS011;33524;55.434;38.520;2023-05-18T00:42:08;18.55;;;13.27;;
47760;SDS011;33524;55.434;38.520;2023-05-18T00:44:36;27.15;;;15.18;;
47760;SDS011;33524;55.434;38.520;2023-05-18T00:47:05;20.73;;;15.32;;
47760;SDS011;33524;55.434;38.520;2023-05-18T00:49:33;21.67;;;15.07;;
47760;SDS011;33524;55.434;38.520;2023-05-18T00:52:02;20.40;;;15.13;;
47760;SDS011;33524;55.434;38.520;2023-05-18T00:54:32;25.50;;;16.90;;
47760;SDS011;33524;55.434;38.520;2023-05-18T00:57:01;20.62;;;13.88;;
47760;SDS011;33524;55.434;38.520;2023-05-18T00:59:30;23.80;;;14.90;;
47760;SDS011;33524;55.434;38.520;2023-05-18T01:01:59;18.65;;;13.80;;
47760;SDS011;33524;55.434;38.520;2023-05-18T01:04:28;21.25;;;15.57;;
47760;SDS011;33524;55.434;38.520;2023-05-18T01:06:58;21.80;;;15.48;;
47760;SDS011;33524;55.434;38.520;2023-05-18T01:09:33;25.15;;;16.10;;
47760;SDS011;33524;55.434;38.520;2023-05-18T01:12:05;22.83;;;15.10;;
47760;SDS011;33524;55.434;38.520;2023-05-18T01:22:45;13.88;;;9.80;;
47760;SDS011;33524;55.434;38.520;2023-05-18T01:25:33;14.55;;;8.23;;
47760;SDS011;33524;55.434;38.520;2023-05-18T01:28:18;9.57;;;6.70;;
47760;SDS011;33524;55.434;38.520;2023-05-18T01:30:56;13.75;;;9.90;;
47760;SDS011;33524;55.434;38.520;2023-05-18T01:33:25;23.10;;;13.18;;
47760;SDS011;33524;55.434;38.520;2023-05-18T01:35:53;20.50;;;14.00;;
47760;SDS011;33524;55.434;38.520;2023-05-18T01:38:25;21.83;;;13.32;;
47760;SDS011;33524;55.434;38.520;2023-05-18T01:41:11;12.55;;;9.48;;
47760;SDS011;33524;55.434;38.520;2023-05-18T01:44:05;12.70;;;8.00;;
47760;SDS011;33524;55.434;38.520;2023-05-18T01:46:58;11.43;;;8.98;;
47760;SDS011;33524;55.434;38.520;2023-05-18T01:49:32;16.12;;;9.32;;
47760;SDS011;33524;55.434;38.520;2023-05-18T01:52:15;9.77;;;5.68;;
47760;SDS011;33524;55.434;38.520;2023-05-18T01:54:53;9.77;;;7.40;;
47760;SDS011;33524;55.434;38.520;2023-05-18T01:57:26;19.45;;;12.70;;
47760;SDS011;33524;55.434;38.520;2023-05-18T02:00:00;18.27;;;12.82;;
47760;SDS011;33524;55.434;38.520;2023-05-18T02:02:43;17.23;;;12.25;;
47760;SDS011;33524;55.434;38.520;2023-05-18T02:05:13;20.80;;;13.15;;
47760;SDS011;33524;55.434;38.520;2023-05-18T02:07:41;19.60;;;13.27;;
47760;SDS011;33524;55.434;38.520;2023-05-18T02:10:17;18.55;;;12.40;;
47760;SDS011;33524;55.434;38.520;2023-05-18T02:12:46;20.83;;;10.55;;
47760;SDS011;33524;55.434;38.520;2023-05-18T02:15:20;12.35;;;8.90;;
47760;SDS011;33524;55.434;38.520;2023-05-18T02:17:48;13.65;;;9.30;;
47760;SDS011;33524;55.434;38.520;2023-05-18T02:20:17;22.40;;;13.38;;
47760;SDS011;33524;55.434;38.520;2023-05-18T02:22:45;18.77;;;10.02;;
47760;SDS011;33524;55.434;38.520;2023-05-18T02:25:14;20.45;;;13.27;;
47760;SDS011;33524;55.434;38.520;2023-05-18T02:27:44;22.30;;;13.52;;
47760;SDS011;33524;55.434;38.520;2023-05-18T02:30:16;22.33;;;12.82;;
47760;SDS011;33524;55.434;38.520;2023-05-18T02:32:44;24.65;;;14.73;;
47760;SDS011;33524;55.434;38.520;2023-05-18T02:35:16;27.33;;;15.63;;
47760;SDS011;33524;55.434;38.520;2023-05-18T02:37:45;21.23;;;13.93;;
47760;SDS011;33524;55.434;38.520;2023-05-18T02:40:13;25.65;;;14.82;;
47760;SDS011;33524;55.434;38.520;2023-05-18T02:42:43;21.95;;;15.55;;
47760;SDS011;33524;55.434;38.520;2023-05-18T02:45:11;25.67;;;15.32;;
47760;SDS011;33524;55.434;38.520;2023-05-18T02:47:40;23.58;;;15.85;;
47760;SDS011;33524;55.434;38.520;2023-05-18T02:50:10;20.23;;;14.98;;
47760;SDS011;33524;55.434;38.520;2023-05-18T02:52:42;26.15;;;15.82;;
47760;SDS011;33524;55.434;38.520;2023-05-18T02:55:12;27.15;;;17.00;;
47760;SDS011;33524;55.434;38.520;2023-05-18T02:57:42;24.58;;;15.70;;
47760;SDS011;33524;55.434;38.520;2023-05-18T03:00:15;24.60;;;15.07;;
47760;SDS011;33524;55.434;38.520;2023-05-18T03:02:44;23.83;;;14.93;;
47760;SDS011;33524;55.434;38.520;2023-05-18T03:05:15;23.27;;;14.15;;
47760;SDS011;33524;55.434;38.520;2023-05-18T03:07:44;23.77;;;14.85;;
47760;SDS011;33524;55.434;38.520;2023-05-18T03:10:17;27.20;;;14.75;;
47760;SDS011;33524;55.434;38.520;2023-05-18T03:12:47;29.37;;;15.90;;
47760;SDS011;33524;55.434;38.520;2023-05-18T03:15:16;26.70;;;15.88;;
47760;SDS011;33524;55.434;38.520;2023-05-18T03:17:44;18.85;;;13.57;;
47760;SDS011;33524;55.434;38.520;2023-05-18T03:20:13;21.23;;;14.45;;
47760;SDS011;33524;55.434;38.520;2023-05-18T03:22:42;23.02;;;14.20;;
47760;SDS011;33524;55.434;38.520;2023-05-18T03:25:10;26.52;;;15.38;;
47760;SDS011;33524;55.434;38.520;2023-05-18T03:27:38;24.12;;;15.13;;
47760;SDS011;33524;55.434;38.520;2023-05-18T03:30:07;23.20;;;15.02;;
47760;SDS011;33524;55.434;38.520;2023-05-18T03:32:36;14.35;;;10.75;;
47760;SDS011;33524;55.434;38.520;2023-05-18T03:35:05;23.75;;;13.93;;
47760;SDS011;33524;55.434;38.520;2023-05-18T03:37:33;19.37;;;11.48;;
47760;SDS011;33524;55.434;38.520;2023-05-18T03:40:07;20.00;;;12.57;;
47760;SDS011;33524;55.434;38.520;2023-05-18T03:42:41;15.40;;;10.98;;
47760;SDS011;33524;55.434;38.520;2023-05-18T03:45:11;19.90;;;10.50;;
47760;SDS011;33524;55.434;38.520;2023-05-18T03:47:40;17.45;;;9.60;;
47760;SDS011;33524;55.434;38.520;2023-05-18T03:50:10;14.18;;;10.15;;
47760;SDS011;33524;55.434;38.520;2023-05-18T03:52:51;12.80;;;8.43;;
47760;SDS011;33524;55.434;38.520;2023-05-18T03:55:20;20.25;;;10.85;;
47760;SDS011;33524;55.434;38.520;2023-05-18T03:57:48;15.88;;;9.52;;
47760;SDS011;33524;55.434;38.520;2023-05-18T04:00:16;14.13;;;7.93;;
47760;SDS011;33524;55.434;38.520;2023-05-18T04:02:44;11.25;;;7.35;;
47760;SDS011;33524;55.434;38.520;2023-05-18T04:05:14;13.20;;;8.98;;
47760;SDS011;33524;55.434;38.520;2023-05-18T04:07:42;16.30;;;8.90;;
47760;SDS011;33524;55.434;38.520;2023-05-18T04:10:13;14.87;;;8.45;;
47760;SDS011;33524;55.434;38.520;2023-05-18T04:12:41;14.55;;;8.32;;
47760;SDS011;33524;55.434;38.520;2023-05-18T04:15:09;15.43;;;9.68;;
47760;SDS011;33524;55.434;38.520;2023-05-18T04:17:41;18.07;;;9.23;;
47760;SDS011;33524;55.434;38.520;2023-05-18T04:20:12;10.73;;;6.20;;
47760;SDS011;33524;55.434;38.520;2023-05-18T04:22:43;14.02;;;7.68;;
47760;SDS011;33524;55.434;38.520;2023-05-18T04:25:14;11.18;;;8.60;;
47760;SDS011;33524;55.434;38.520;2023-05-18T04:27:43;14.82;;;7.90;;
47760;SDS011;33524;55.434;38.520;2023-05-18T04:30:25;11.20;;;7.60;;
47760;SDS011;33524;55.434;38.520;2023-05-18T04:32:54;10.55;;;7.82;;
47760;SDS011;33524;55.434;38.520;2023-05-18T04:35:25;13.52;;;7.57;;
47760;SDS011;33524;55.434;38.520;2023-05-18T04:37:54;11.38;;;7.95;;
47760;SDS011;33524;55.434;38.520;2023-05-18T04:40:22;9.85;;;6.12;;
47760;SDS011;33524;55.434;38.520;2023-05-18T04:42:51;8.30;;;5.72;;
47760;SDS011;33524;55.434;38.520;2023-05-18T04:45:21;11.77;;;6.87;;
47760;SDS011;33524;55.434;38.520;2023-05-18T04:47:53;9.73;;;6.53;;
47760;SDS011;33524;55.434;38.520;2023-05-18T04:50:22;11.15;;;6.53;;
47760;SDS011;33524;55.434;38.520;2023-05-18T04:52:52;15.18;;;8.82;;
47760;SDS011;33524;55.434;38.520;2023-05-18T04:55:25;9.45;;;7.70;;
47760;SDS011;33524;55.434;38.520;2023-05-18T04:57:56;11.15;;;6.37;;
47760;SDS011;33524;55.434;38.520;2023-05-18T05:00:25;15.90;;;8.40;;
47760;SDS011;33524;55.434;38.520;2023-05-18T05:02:57;14.00;;;7.97;;
47760;SDS011;33524;55.434;38.520;2023-05-18T05:05:26;11.63;;;7.45;;
47760;SDS011;33524;55.434;38.520;2023-05-18T05:07:57;11.57;;;8.27;;
47760;SDS011;33524;55.434;38.520;2023-05-18T05:10:25;12.80;;;7.40;;
47760;SDS011;33524;55.434;38.520;2023-05-18T05:12:58;12.10;;;7.43;;
47760;SDS011;33524;55.434;38.520;2023-05-18T05:15:26;12.60;;;7.97;;
47760;SDS011;33524;55.434;38.520;2023-05-18T05:17:55;13.68;;;6.95;;
47760;SDS011;33524;55.434;38.520;2023-05-18T05:20:25;13.48;;;6.72;;
47760;SDS011;33524;55.434;38.520;2023-05-18T05:22:53;10.95;;;7.28;;
47760;SDS011;33524;55.434;38.520;2023-05-18T05:25:22;9.93;;;6.80;;
47760;SDS011;33524;55.434;38.520;2023-05-18T05:27:50;11.20;;;7.37;;
47760;SDS011;33524;55.434;38.520;2023-05-18T05:30:19;10.32;;;6.75;;
47760;SDS011;33524;55.434;38.520;2023-05-18T05:32:47;11.52;;;7.62;;
47760;SDS011;33524;55.434;38.520;2023-05-18T05:35:34;14.48;;;7.95;;
47760;SDS011;33524;55.434;38.520;2023-05-18T05:38:03;10.88;;;7.43;;
47760;SDS011;33524;55.434;38.520;2023-05-18T05:40:32;11.43;;;6.70;;
47760;SDS011;33524;55.434;38.520;2023-05-18T05:43:03;9.50;;;6.30;;
47760;SDS011;33524;55.434;38.520;2023-05-18T05:45:32;11.10;;;6.53;;
47760;SDS011;33524;55.434;38.520;2023-05-18T05:48:00;13.60;;;7.07;;
47760;SDS011;33524;55.434;38.520;2023-05-18T05:50:31;11.88;;;7.10;;
47760;SDS011;33524;55.434;38.520;2023-05-18T05:53:00;11.77;;;6.93;;
47760;SDS011;33524;55.434;38.520;2023-05-18T05:55:29;12.43;;;6.68;;
47760;SDS011;33524;55.434;38.520;2023-05-18T05:57:58;10.38;;;7.18;;
47760;SDS011;33524;55.434;38.520;2023-05-18T06:00:26;10.52;;;5.80;;
47760;SDS011;33524;55.434;38.520;2023-05-18T06:02:56;10.20;;;6.43;;
47760;SDS011;33524;55.434;38.520;2023-05-18T06:05:25;10.50;;;5.60;;
47760;SDS011;33524;55.434;38.520;2023-05-18T06:07:55;7.03;;;5.85;;
47760;SDS011;33524;55.434;38.520;2023-05-18T06:10:24;8.68;;;6.00;;
47760;SDS011;33524;55.434;38.520;2023-05-18T06:13:05;8.33;;;6.50;;
47760;SDS011;33524;55.434;38.520;2023-05-18T06:15:35;6.68;;;5.25;;
47760;SDS011;33524;55.434;38.520;2023-05-18T06:18:04;14.05;;;7.20;;
47760;SDS011;33524;55.434;38.520;2023-05-18T06:20:34;8.73;;;5.00;;
47760;SDS011;33524;55.434;38.520;2023-05-18T06:23:02;10.63;;;6.05;;
47760;SDS011;33524;55.434;38.520;2023-05-18T06:25:31;7.15;;;5.18;;
47760;SDS011;33524;55.434;38.520;2023-05-18T06:28:00;8.07;;;5.72;;
47760;SDS011;33524;55.434;38.520;2023-05-18T06:30:29;9.43;;;6.25;;
47760;SDS011;33524;55.434;38.520;2023-05-18T06:32:58;11.50;;;5.87;;
47760;SDS011;33524;55.434;38.520;2023-05-18T06:35:26;8.23;;;5.87;;
47760;SDS011;33524;55.434;38.520;2023-05-18T06:37:54;13.85;;;7.35;;
47760;SDS011;33524;55.434;38.520;2023-05-18T06:40:22;6.80;;;5.15;;
47760;SDS011;33524;55.434;38.520;2023-05-18T06:42:50;11.52;;;5.30;;
47760;SDS011;33524;55.434;38.520;2023-05-18T06:45:19;6.28;;;4.43;;
47760;SDS011;33524;55.434;38.520;2023-05-18T06:47:47;8.40;;;4.30;;
47760;SDS011;33524;55.434;38.520;2023-05-18T06:50:16;5.50;;;4.32;;
47760;SDS011;33524;55.434;38.520;2023-05-18T06:52:44;5.70;;;4.30;;
47760;SDS011;33524;55.434;38.520;2023-05-18T06:55:12;8.98;;;4.00;;
47760;SDS011;33524;55.434;38.520;2023-05-18T06:57:41;8.20;;;4.30;;
47760;SDS011;33524;55.434;38.520;2023-05-18T07:00:11;7.85;;;4.07;;
47760;SDS011;33524;55.434;38.520;2023-05-18T07:02:39;6.95;;;3.75;;
47760;SDS011;33524;55.434;38.520;2023-05-18T07:05:09;5.53;;;4.12;;
47760;SDS011;33524;55.434;38.520;2023-05-18T07:07:38;4.95;;;3.90;;
47760;SDS011;33524;55.434;38.520;2023-05-18T07:10:06;10.07;;;4.00;;
47760;SDS011;33524;55.434;38.520;2023-05-18T07:12:35;6.28;;;3.95;;
47760;SDS011;33524;55.434;38.520;2023-05-18T07:15:03;4.97;;;3.87;;
47760;SDS011;33524;55.434;38.520;2023-05-18T07:17:32;5.22;;;3.25;;
47760;SDS011;33524;55.434;38.520;2023-05-18T07:20:00;5.28;;;3.22;;
47760;SDS011;33524;55.434;38.520;2023-05-18T07:22:30;5.57;;;3.55;;
47760;SDS011;33524;55.434;38.520;2023-05-18T07:25:10;5.62;;;4.32;;
47760;SDS011;33524;55.434;38.520;2023-05-18T07:27:38;6.00;;;3.83;;
47760;SDS011;33524;55.434;38.520;2023-05-18T07:30:07;6.35;;;3.25;;
47760;SDS011;33524;55.434;38.520;2023-05-18T07:32:35;4.70;;;3.58;;
47760;SDS011;33524;55.434;38.520;2023-05-18T07:35:25;7.50;;;3.83;;
47760;SDS011;33524;55.434;38.520;2023-05-18T07:37:53;5.05;;;3.70;;
47760;SDS011;33524;55.434;38.520;2023-05-18T07:40:22;7.37;;;4.03;;
47760;SDS011;33524;55.434;38.520;2023-05-18T07:42:50;6.68;;;3.72;;
47760;SDS011;33524;55.434;38.520;2023-05-18T07:45:31;4.35;;;3.53;;
47760;SDS011;33524;55.434;38.520;2023-05-18T07:48:12;6.07;;;4.05;;
47760;SDS011;33524;55.434;38.520;2023-05-18T07:50:41;6.50;;;3.60;;
47760;SDS011;33524;55.434;38.520;2023-05-18T07:53:09;4.15;;;3.35;;
47760;SDS011;33524;55.434;38.520;2023-05-18T07:55:37;5.90;;;3.72;;
47760;SDS011;33524;55.434;38.520;2023-05-18T07:58:05;6.25;;;4.18;;
47760;SDS011;33524;55.434;38.520;2023-05-18T08:00:33;8.25;;;3.87;;
47760;SDS011;33524;55.434;38.520;2023-05-18T08:03:02;6.18;;;4.40;;
47760;SDS011;33524;55.434;38.520;2023-05-18T08:05:30;7.35;;;4.03;;
47760;SDS011;33524;55.434;38.520;2023-05-18T08:07:59;5.78;;;4.05;;
47760;SDS011;33524;55.434;38.520;2023-05-18T08:10:32;6.35;;;4.07;;
47760;SDS011;33524;55.434;38.520;2023-05-18T08:13:00;4.55;;;3.35;;
47760;SDS011;33524;55.434;38.520;2023-05-18T08:15:28;6.05;;;4.18;;
47760;SDS011;33524;55.434;38.520;2023-05-18T08:17:57;4.97;;;3.22;;
47760;SDS011;33524;55.434;38.520;2023-05-18T08:20:25;5.37;;;4.37;;
47760;SDS011;33524;55.434;38.520;2023-05-18T08:22:56;5.85;;;3.62;;
47760;SDS011;33524;55.434;38.520;2023-05-18T08:25:25;6.68;;;4.22;;
47760;SDS011;33524;55.434;38.520;2023-05-18T08:27:53;7.87;;;4.87;;
47760;SDS011;33524;55.434;38.520;2023-05-18T08:30:21;6.15;;;4.70;;
47760;SDS011;33524;55.434;38.520;2023-05-18T08:32:49;5.18;;;4.07;;
47760;SDS011;33524;55.434;38.520;2023-05-18T08:35:18;6.00;;;4.03;;
47760;SDS011;33524;55.434;38.520;2023-05-18T08:37:45;6.20;;;3.60;;
47760;SDS011;33524;55.434;38.520;2023-05-18T08:40:14;4.47;;;3.53;;
47760;SDS011;33524;55.434;38.520;2023-05-18T08:42:45;5.57;;;3.97;;
47760;SDS011;33524;55.434;38.520;2023-05-18T08:45:40;5.43;;;4.22;;
47760;SDS011;33524;55.434;38.520;2023-05-18T08:48:11;5.32;;;4.00;;
47760;SDS011;33524;55.434;38.520;2023-05-18T08:50:43;5.70;;;4.65;;
47760;SDS011;33524;55.434;38.520;2023-05-18T08:53:12;6.55;;;3.90;;
47760;SDS011;33524;55.434;38.520;2023-05-18T08:55:41;7.45;;;5.10;;
47760;SDS011;33524;55.434;38.520;2023-05-18T08:58:13;5.70;;;4.00;;
47760;SDS011;33524;55.434;38.520;2023-05-18T09:00:46;5.68;;;4.25;;
47760;SDS011;33524;55.434;38.520;2023-05-18T09:03:14;5.45;;;4.10;;
47760;SDS011;33524;55.434;38.520;2023-05-18T09:05:43;6.60;;;3.45;;
47760;SDS011;33524;55.434;38.520;2023-05-18T09:08:12;4.90;;;3.85;;
47760;SDS011;33524;55.434;38.520;2023-05-18T09:10:42;6.00;;;4.78;;
47760;SDS011;33524;55.434;38.520;2023-05-18T09:13:10;5.78;;;4.62;;
47760;SDS011;33524;55.434;38.520;2023-05-18T09:15:41;5.30;;;4.07;;
47760;SDS011;33524;55.434;38.520;2023-05-18T09:18:09;5.50;;;3.90;;
47760;SDS011;33524;55.434;38.520;2023-05-18T09:20:38;5.82;;;4.12;;
47760;SDS011;33524;55.434;38.520;2023-05-18T09:23:06;5.62;;;4.60;;
47760;SDS011;33524;55.434;38.520;2023-05-18T09:25:34;4.97;;;4.20;;
47760;SDS011;33524;55.434;38.520;2023-05-18T09:28:10;9.63;;;4.82;;
47760;SDS011;33524;55.434;38.520;2023-05-18T09:30:41;6.25;;;3.80;;
47760;SDS011;33524;55.434;38.520;2023-05-18T09:33:19;6.05;;;4.12;;
47760;SDS011;33524;55.434;38.520;2023-05-18T09:35:50;5.85;;;4.25;;
47760;SDS011;33524;55.434;38.520;2023-05-18T09:38:23;5.87;;;4.37;;
47760;SDS011;33524;55.434;38.520;2023-05-18T09:40:52;14.13;;;4.62;;
47760;SDS011;33524;55.434;38.520;2023-05-18T09:43:20;5.75;;;4.75;;
47760;SDS011;33524;55.434;38.520;2023-05-18T09:45:48;5.28;;;4.45;;
47760;SDS011;33524;55.434;38.520;2023-05-18T09:48:34;5.57;;;4.25;;
47760;SDS011;33524;55.434;38.520;2023-05-18T09:51:04;5.95;;;4.28;;
47760;SDS011;33524;55.434;38.520;2023-05-18T09:53:39;6.43;;;4.65;;
47760;SDS011;33524;55.434;38.520;2023-05-18T09:56:08;5.57;;;4.03;;
47760;SDS011;33524;55.434;38.520;2023-05-18T09:58:38;5.07;;;3.85;;
47760;SDS011;33524;55.434;38.520;2023-05-18T10:01:07;6.00;;;4.62;;
47760;SDS011;33524;55.434;38.520;2023-05-18T10:03:36;6.00;;;4.40;;
47760;SDS011;33524;55.434;38.520;2023-05-18T10:06:08;6.32;;;4.40;;
47760;SDS011;33524;55.434;38.520;2023-05-18T10:08:40;5.35;;;4.45;;
47760;SDS011;33524;55.434;38.520;2023-05-18T10:11:08;6.07;;;4.93;;
47760;SDS011;33524;55.434;38.520;2023-05-18T10:13:36;6.72;;;4.55;;
47760;SDS011;33524;55.434;38.520;2023-05-18T10:16:06;5.30;;;4.28;;
47760;SDS011;33524;55.434;38.520;2023-05-18T10:18:35;5.95;;;4.22;;
47760;SDS011;33524;55.434;38.520;2023-05-18T10:21:05;5.03;;;4.37;;
47760;SDS011;33524;55.434;38.520;2023-05-18T10:23:35;6.32;;;5.15;;
47760;SDS011;33524;55.434;38.520;2023-05-18T10:26:04;5.50;;;4.20;;
47760;SDS011;33524;55.434;38.520;2023-05-18T10:28:37;7.40;;;4.45;;
47760;SDS011;33524;55.434;38.520;2023-05-18T10:33:37;13.18;;;4.93;;
47760;SDS011;33524;55.434;38.520;2023-05-18T10:36:05;6.47;;;3.90;;
47760;SDS011;33524;55.434;38.520;2023-05-18T10:38:36;8.77;;;4.72;;
47760;SDS011;33524;55.434;38.520;2023-05-18T10:41:09;7.05;;;4.53;;
47760;SDS011;33524;55.434;38.520;2023-05-18T10:43:40;6.78;;;4.45;;
47760;SDS011;33524;55.434;38.520;2023-05-18T10:46:08;6.28;;;4.20;;
47760;SDS011;33524;55.434;38.520;2023-05-18T10:48:37;7.60;;;4.78;;
47760;SDS011;33524;55.434;38.520;2023-05-18T10:51:08;6.60;;;5.00;;
47760;SDS011;33524;55.434;38.520;2023-05-18T10:53:38;6.37;;;4.35;;
47760;SDS011;33524;55.434;38.520;2023-05-18T10:56:10;8.63;;;5.03;;
47760;SDS011;33524;55.434;38.520;2023-05-18T10:58:38;6.05;;;4.35;;
47760;SDS011;33524;55.434;38.520;2023-05-18T11:01:08;5.68;;;4.35;;
47760;SDS011;33524;55.434;38.520;2023-05-18T11:03:38;8.50;;;4.30;;
47760;SDS011;33524;55.434;38.520;2023-05-18T11:06:09;6.70;;;4.28;;
47760;SDS011;33524;55.434;38.520;2023-05-18T11:08:42;5.93;;;4.32;;
47760;SDS011;33524;55.434;38.520;2023-05-18T11:11:14;7.10;;;4.20;;
47760;SDS011;33524;55.434;38.520;2023-05-18T11:13:52;7.30;;;4.30;;
47760;SDS011;33524;55.434;38.520;2023-05-18T11:16:20;4.65;;;3.83;;
47760;SDS011;33524;55.434;38.520;2023-05-18T11:19:05;7.70;;;5.05;;
47760;SDS011;33524;55.434;38.520;2023-05-18T11:26:48;7.70;;;4.95;;
47760;SDS011;33524;55.434;38.520;2023-05-18T11:29:29;6.62;;;5.18;;
47760;SDS011;33524;55.434;38.520;2023-05-18T11:32:01;7.07;;;4.65;;
47760;SDS011;33524;55.434;38.520;2023-05-18T11:37:06;7.22;;;5.18;;
47760;SDS011;33524;55.434;38.520;2023-05-18T11:39:37;8.40;;;5.75;;
47760;SDS011;33524;55.434;38.520;2023-05-18T11:42:17;8.52;;;5.68;;
47760;SDS011;33524;55.434;38.520;2023-05-18T11:44:53;6.97;;;5.30;;
47760;SDS011;33524;55.434;38.520;2023-05-18T11:47:22;5.80;;;4.00;;
47760;SDS011;33524;55.434;38.520;2023-05-18T11:50:01;6.32;;;4.32;;
47760;SDS011;33524;55.434;38.520;2023-05-18T11:52:29;5.20;;;3.83;;
47760;SDS011;33524;55.434;38.520;2023-05-18T11:54:58;6.90;;;4.53;;
47760;SDS011;33524;55.434;38.520;2023-05-18T12:00:03;6.70;;;4.40;;
47760;SDS011;33524;55.434;38.520;2023-05-18T12:02:38;6.07;;;4.50;;
47760;SDS011;33524;55.434;38.520;2023-05-18T12:05:13;6.90;;;4.40;;
47760;SDS011;33524;55.434;38.520;2023-05-18T12:07:42;4.90;;;3.65;;
47760;SDS011;33524;55.434;38.520;2023-05-18T12:10:11;7.12;;;4.30;;
47760;SDS011;33524;55.434;38.520;2023-05-18T12:12:41;5.30;;;4.07;;
47760;SDS011;33524;55.434;38.520;2023-05-18T12:15:10;5.03;;;3.87;;
47760;SDS011;33524;55.434;38.520;2023-05-18T12:17:44;5.85;;;3.80;;
47760;SDS011;33524;55.434;38.520;2023-05-18T12:20:17;5.37;;;3.83;;
47760;SDS011;33524;55.434;38.520;2023-05-18T12:22:50;5.60;;;4.20;;
47760;SDS011;33524;55.434;38.520;2023-05-18T12:25:21;6.28;;;4.00;;
47760;SDS011;33524;55.434;38.520;2023-05-18T12:27:50;6.07;;;4.22;;
47760;SDS011;33524;55.434;38.520;2023-05-18T12:30:23;5.45;;;3.97;;
47760;SDS011;33524;55.434;38.520;2023-05-18T12:32:54;6.15;;;4.22;;
47760;SDS011;33524;55.434;38.520;2023-05-18T12:37:52;7.32;;;4.30;;
47760;SDS011;33524;55.434;38.520;2023-05-18T12:40:24;5.68;;;3.95;;
47760;SDS011;33524;55.434;38.520;2023-05-18T12:42:54;5.30;;;3.83;;
47760;SDS011;33524;55.434;38.520;2023-05-18T12:47:54;8.30;;;4.70;;
47760;SDS011;33524;55.434;38.520;2023-05-18T12:50:23;5.90;;;4.18;;
47760;SDS011;33524;55.434;38.520;2023-05-18T12:52:55;7.32;;;4.12;;
47760;SDS011;33524;55.434;38.520;2023-05-18T12:55:23;4.87;;;3.42;;
47760;SDS011;33524;55.434;38.520;2023-05-18T12:58:01;5.68;;;4.45;;
47760;SDS011;33524;55.434;38.520;2023-05-18T13:00:34;5.87;;;4.05;;
47760;SDS011;33524;55.434;38.520;2023-05-18T13:03:04;4.62;;;3.72;;
47760;SDS011;33524;55.434;38.520;2023-05-18T13:05:43;5.10;;;3.97;;
47760;SDS011;33524;55.434;38.520;2023-05-18T13:08:13;6.95;;;4.47;;
47760;SDS011;33524;55.434;38.520;2023-05-18T13:10:46;6.25;;;4.45;;
47760;SDS011;33524;55.434;38.520;2023-05-18T13:13:31;7.72;;;4.20;;
47760;SDS011;33524;55.434;38.520;2023-05-18T13:16:00;5.78;;;4.25;;
47760;SDS011;33524;55.434;38.520;2023-05-18T13:18:28;6.03;;;4.85;;
47760;SDS011;33524;55.434;38.520;2023-05-18T13:20:56;6.55;;;4.80;;
47760;SDS011;33524;55.434;38.520;2023-05-18T13:23:28;6.85;;;4.53;;
47760;SDS011;33524;55.434;38.520;2023-05-18T13:25:57;5.90;;;4.30;;
47760;SDS011;33524;55.434;38.520;2023-05-18T13:28:25;7.10;;;4.60;;
47760;SDS011;33524;55.434;38.520;2023-05-18T13:30:53;5.62;;;4.32;;
47760;SDS011;33524;55.434;38.520;2023-05-18T13:33:21;6.62;;;4.05;;
47760;SDS011;33524;55.434;38.520;2023-05-18T13:35:50;6.87;;;4.10;;
47760;SDS011;33524;55.434;38.520;2023-05-18T13:38:17;8.05;;;4.62;;
47760;SDS011;33524;55.434;38.520;2023-05-18T13:40:45;5.30;;;4.57;;
47760;SDS011;33524;55.434;38.520;2023-05-18T13:43:14;5.65;;;4.53;;
47760;SDS011;33524;55.434;38.520;2023-05-18T13:45:42;6.82;;;4.05;;
47760;SDS011;33524;55.434;38.520;2023-05-18T13:48:10;6.45;;;5.00;;
47760;SDS011;33524;55.434;38.520;2023-05-18T13:50:39;5.57;;;4.12;;
47760;SDS011;33524;55.434;38.520;2023-05-18T13:53:07;5.03;;;4.18;;
47760;SDS011;33524;55.434;38.520;2023-05-18T13:55:35;7.55;;;4.40;;
47760;SDS011;33524;55.434;38.520;2023-05-18T13:58:03;6.10;;;4.20;;
47760;SDS011;33524;55.434;38.520;2023-05-18T14:00:32;5.47;;;4.25;;
47760;SDS011;33524;55.434;38.520;2023-05-18T14:03:01;5.80;;;4.00;;
47760;SDS011;33524;55.434;38.520;2023-05-18T14:05:29;6.47;;;3.87;;
47760;SDS011;33524;55.434;38.520;2023-05-18T14:07:57;5.62;;;4.00;;
47760;SDS011;33524;55.434;38.520;2023-05-18T14:10:25;5.90;;;4.32;;
47760;SDS011;33524;55.434;38.520;2023-05-18T14:12:53;5.90;;;4.25;;
47760;SDS011;33524;55.434;38.520;2023-05-18T14:15:21;6.15;;;4.12;;
47760;SDS011;33524;55.434;38.520;2023-05-18T14:17:49;6.25;;;4.37;;
47760;SDS011;33524;55.434;38.520;2023-05-18T14:20:17;5.05;;;4.28;;
47760;SDS011;33524;55.434;38.520;2023-05-18T14:22:47;5.40;;;4.10;;
47760;SDS011;33524;55.434;38.520;2023-05-18T14:25:15;6.37;;;4.50;;
47760;SDS011;33524;55.434;38.520;2023-05-18T14:27:43;7.43;;;4.50;;
47760;SDS011;33524;55.434;38.520;2023-05-18T14:30:11;5.70;;;4.53;;
47760;SDS011;33524;55.434;38.520;2023-05-18T14:32:40;7.45;;;4.37;;
47760;SDS011;33524;55.434;38.520;2023-05-18T14:35:08;6.18;;;4.40;;
47760;SDS011;33524;55.434;38.520;2023-05-18T14:37:36;5.72;;;4.15;;
47760;SDS011;33524;55.434;38.520;2023-05-18T14:40:05;5.75;;;4.28;;
47760;SDS011;33524;55.434;38.520;2023-05-18T14:42:34;5.45;;;3.90;;
47760;SDS011;33524;55.434;38.520;2023-05-18T14:45:03;6.80;;;4.15;;
47760;SDS011;33524;55.434;38.520;2023-05-18T14:47:32;7.82;;;4.35;;
47760;SDS011;33524;55.434;38.520;2023-05-18T14:50:00;6.70;;;4.20;;
47760;SDS011;33524;55.434;38.520;2023-05-18T14:52:28;5.72;;;4.50;;
47760;SDS011;33524;55.434;38.520;2023-05-18T14:54:56;7.10;;;4.15;;
47760;SDS011;33524;55.434;38.520;2023-05-18T14:57:24;7.32;;;4.18;;
47760;SDS011;33524;55.434;38.520;2023-05-18T14:59:53;5.68;;;4.35;;
47760;SDS011;33524;55.434;38.520;2023-05-18T15:02:21;5.40;;;3.92;;
47760;SDS011;33524;55.434;38.520;2023-05-18T15:04:49;6.65;;;4.47;;
47760;SDS011;33524;55.434;38.520;2023-05-18T15:07:17;6.60;;;4.28;;
47760;SDS011;33524;55.434;38.520;2023-05-18T15:09:46;6.25;;;4.03;;
47760;SDS011;33524;55.434;38.520;2023-05-18T15:12:14;7.75;;;4.05;;